Time;durP1;ratioP1;P1;durP2;ratioP2;P2;SDS_P1;SDS_P2;PMS_P1;PMS_P2;Temp;Humidity;BMP_temperature;BMP_pressure;BME280_temperature;BME280_humidity;BME280_pressure;Samples;Min_cycle;Max_cycle;Signal;HPM_P1;HPM_P2
2021/06/13 00:01:22;;;;;;;2.85;1.50;;;22.00;55.80;;;;;;3110685;28;20081;-79
2021/06/13 00:02:53;;;;;;;3.63;1.70;;;21.90;55.80;;;;;;3110426;28;20045;-78
2021/06/13 00:04:24;;;;;;;3.10;1.50;;;21.90;55.70;;;;;;3111118;28;20057;-79
2021/06/13 00:05:55;;;;;;;2.97;1.40;;;22.00;56.30;;;;;;3110698;28;20530;-79
2021/06/13 00:07:26;;;;;;;2.50;1.40;;;21.90;55.70;;;;;;3110540;28;20184;-80
2021/06/13 00:08:57;;;;;;;2.20;1.40;;;22.00;55.70;;;;;;3111051;28;20057;-80
2021/06/13 00:10:28;;;;;;;2.83;1.52;;;21.90;55.70;;;;;;3110771;28;20098;-79
2021/06/13 00:12:00;;;;;;;2.60;1.40;;;21.90;55.70;;;;;;3110571;28;20054;-79
2021/06/13 00:13:31;;;;;;;2.40;1.45;;;22.00;55.70;;;;;;3111445;28;20060;-79
2021/06/13 00:15:04;;;;;;;1.67;1.30;;;22.00;55.70;;;;;;3110992;28;20507;-79
2021/06/13 00:16:34;;;;;;;;;;;22.00;55.70;;;;;;3111080;28;20415;-79
2021/06/13 00:18:05;;;;;;;2.38;1.50;;;22.00;55.70;;;;;;3111210;28;19918;-80
2021/06/13 00:19:37;;;;;;;2.30;1.40;;;21.90;55.70;;;;;;3111582;28;20057;-79
2021/06/13 00:21:07;;;;;;;2.13;1.20;;;21.90;55.70;;;;;;3111875;28;20053;-79
2021/06/13 00:22:38;;;;;;;2.20;1.50;;;21.90;55.70;;;;;;3110405;28;20506;-78
2021/06/13 00:24:10;;;;;;;4.32;1.63;;;21.90;55.70;;;;;;3110904;28;20061;-80
2021/06/13 00:25:40;;;;;;;3.25;1.90;;;22.00;55.80;;;;;;3110833;28;20054;-79
2021/06/13 00:27:11;;;;;;;2.10;1.38;;;21.90;55.70;;;;;;3110168;28;20041;-80
2021/06/13 00:28:42;;;;;;;2.90;1.67;;;21.90;55.90;;;;;;3110585;28;20054;-80
2021/06/13 00:30:16;;;;;;;2.97;1.33;;;21.90;55.60;;;;;;3109837;28;20529;-80
2021/06/13 00:31:49;;;;;;;2.65;1.40;;;21.90;55.70;;;;;;3110493;28;20053;-78
2021/06/13 00:33:20;;;;;;;;;;;22.00;55.70;;;;;;3111371;28;20499;-79
2021/06/13 00:34:51;;;;;;;2.17;1.38;;;21.90;55.70;;;;;;3111151;28;19921;-79
2021/06/13 00:36:22;;;;;;;2.05;1.40;;;22.00;55.70;;;;;;3110865;28;20077;-80
2021/06/13 00:37:53;;;;;;;2.80;1.48;;;21.90;56.20;;;;;;3109820;28;20076;-80
2021/06/13 00:39:24;;;;;;;2.22;1.70;;;22.00;55.70;;;;;;3111145;28;20112;-80
2021/06/13 00:40:55;;;;;;;3.00;1.48;;;22.00;55.60;;;;;;3110495;28;20077;-79
2021/06/13 00:42:26;;;;;;;2.15;1.60;;;21.90;55.50;;;;;;3110317;28;20074;-80
2021/06/13 00:43:57;;;;;;;2.10;1.55;;;22.00;55.60;;;;;;3110716;28;20691;-79
2021/06/13 00:45:29;;;;;;;2.05;1.40;;;21.90;55.60;;;;;;3109872;28;20128;-79
2021/06/13 00:47:00;;;;;;;3.00;1.52;;;21.90;55.60;;;;;;3110125;28;20050;-79
2021/06/13 00:48:31;;;;;;;3.17;1.63;;;21.90;55.60;;;;;;3110837;28;20073;-79
2021/06/13 00:50:02;;;;;;;2.42;1.38;;;21.90;55.60;;;;;;3110792;28;20053;-80
2021/06/13 00:51:33;;;;;;;2.58;1.58;;;21.90;55.60;;;;;;3110751;28;20052;-79
2021/06/13 00:53:05;;;;;;;2.33;1.45;;;21.90;55.60;;;;;;3110162;28;20058;-81
2021/06/13 00:54:36;;;;;;;2.10;1.38;;;22.00;55.70;;;;;;3110427;28;20057;-79
2021/06/13 00:56:07;;;;;;;2.75;1.52;;;22.00;55.70;;;;;;3110602;28;20499;-79
2021/06/13 00:57:38;;;;;;;2.55;1.40;;;21.90;55.60;;;;;;3109938;28;20046;-79
2021/06/13 00:59:09;;;;;;;2.50;1.55;;;21.90;55.60;;;;;;3110658;28;20057;-79
2021/06/13 01:00:43;;;;;;;2.30;1.38;;;21.90;55.60;;;;;;3109198;28;20426;-79
2021/06/13 01:02:14;;;;;;;3.20;1.40;;;21.90;55.50;;;;;;3109761;28;20045;-79
2021/06/13 01:03:47;;;;;;;2.63;1.50;;;21.90;55.60;;;;;;3110837;28;20053;-79
2021/06/13 01:05:18;;;;;;;3.20;1.52;;;22.00;55.60;;;;;;3110597;28;20054;-79
2021/06/13 01:06:53;;;;;;;3.63;1.92;;;21.90;55.60;;;;;;3110160;28;20095;-80
2021/06/13 01:08:30;;;;;;;3.20;1.83;;;21.90;55.50;;;;;;3110450;28;20057;-79
2021/06/13 01:10:03;;;;;;;2.03;1.45;;;21.90;55.40;;;;;;3110642;28;20414;-80
2021/06/13 01:11:37;;;;;;;2.90;1.40;;;21.90;55.60;;;;;;3110376;28;20056;-80
2021/06/13 01:13:12;;;;;;;3.60;1.77;;;21.90;55.60;;;;;;3122464;28;20049;-79
2021/06/13 01:14:46;;;;;;;1.75;1.20;;;21.90;55.50;;;;;;3122808;28;20050;-79
2021/06/13 01:16:26;;;;;;;2.90;1.30;;;21.90;55.40;;;;;;3112259;28;20515;-80
2021/06/13 01:18:01;;;;;;;2.40;1.50;;;21.90;55.50;;;;;;3110143;28;20050;-80
2021/06/13 01:19:45;;;;;;;3.10;1.30;;;22.00;55.60;;;;;;3110395;28;20072;-79
2021/06/13 01:21:19;;;;;;;1.95;1.40;;;21.90;55.50;;;;;;3111121;28;20133;-80
2021/06/13 01:23:02;;;;;;;3.03;1.60;;;21.90;55.50;;;;;;3110160;28;20049;-78
2021/06/13 01:24:38;;;;;;;1.98;1.30;;;21.90;56.10;;;;;;3110867;28;20096;-80
2021/06/13 01:26:36;;;;;;;3.25;1.45;;;21.90;55.50;;;;;;3110820;28;20050;-79
2021/06/13 01:28:34;;;;;;;2.13;1.40;;;21.90;55.50;;;;;;3091155;28;20584;-80
2021/06/13 01:30:08;;;;;;;2.35;1.40;;;22.00;55.60;;;;;;3121611;28;20065;-80
2021/06/13 01:31:40;;;;;;;2.17;1.35;;;21.90;55.40;;;;;;3122542;28;20060;-79
2021/06/13 01:33:12;;;;;;;3.08;1.67;;;21.90;55.50;;;;;;3122821;28;20056;-78
2021/06/13 01:34:46;;;;;;;2.75;1.58;;;21.90;55.50;;;;;;3122767;28;20046;-79
2021/06/13 01:36:17;;;;;;;3.33;1.70;;;21.90;55.40;;;;;;3122784;28;20041;-79
2021/06/13 01:37:54;;;;;;;2.13;1.55;;;21.90;55.40;;;;;;3121558;28;20047;-80
2021/06/13 01:39:27;;;;;;;2.60;1.50;;;21.90;55.40;;;;;;3122936;28;20057;-78
2021/06/13 01:41:00;;;;;;;2.08;1.33;;;21.90;56.00;;;;;;3122458;28;20115;-79
2021/06/13 01:42:31;;;;;;;4.22;1.30;;;21.90;55.50;;;;;;3122466;28;20120;-78
2021/06/13 01:44:02;;;;;;;2.33;1.40;;;21.90;55.40;;;;;;3122466;28;20057;-80
2021/06/13 01:45:36;;;;;;;3.00;1.40;;;21.90;55.40;;;;;;3122058;28;20494;-79
2021/06/13 01:47:07;;;;;;;2.95;1.55;;;21.90;55.50;;;;;;3122435;28;20517;-78
2021/06/13 01:48:39;;;;;;;2.40;1.50;;;21.90;55.40;;;;;;3122638;28;20049;-78
2021/06/13 01:50:10;;;;;;;2.42;1.42;;;21.90;55.40;;;;;;3122508;28;20058;-80
2021/06/13 01:51:42;;;;;;;2.15;1.38;;;21.90;55.40;;;;;;3121734;28;20042;-78
2021/06/13 01:53:14;;;;;;;3.35;1.60;;;21.90;55.30;;;;;;3122702;28;20084;-79
2021/06/13 01:54:45;;;;;;;2.78;1.60;;;21.90;55.50;;;;;;3122477;28;20053;-79
2021/06/13 01:56:16;;;;;;;3.30;1.58;;;21.90;55.40;;;;;;3122644;28;20445;-80
2021/06/13 01:57:48;;;;;;;2.53;1.40;;;21.90;55.40;;;;;;3122223;28;20046;-79
2021/06/13 01:59:19;;;;;;;2.33;1.30;;;21.90;55.40;;;;;;3122630;28;20095;-79
2021/06/13 02:00:51;;;;;;;2.13;1.27;;;21.90;55.40;;;;;;3121738;28;20418;-79
2021/06/13 02:02:23;;;;;;;3.15;1.42;;;21.90;55.40;;;;;;3122121;28;20041;-79
2021/06/13 02:03:54;;;;;;;3.25;1.60;;;21.90;55.40;;;;;;3122417;28;20049;-78
2021/06/13 02:05:25;;;;;;;3.28;1.60;;;21.90;55.40;;;;;;3122315;28;20561;-79
2021/06/13 02:06:58;;;;;;;2.47;1.42;;;21.90;55.40;;;;;;3121982;28;20061;-78
2021/06/13 02:08:32;;;;;;;2.70;1.42;;;21.90;55.40;;;;;;3123003;28;20050;-80
2021/06/13 02:10:04;;;;;;;2.80;1.52;;;21.90;55.30;;;;;;3121985;28;20050;-80
2021/06/13 02:11:36;;;;;;;3.78;1.40;;;21.90;55.40;;;;;;3122399;28;20050;-79
2021/06/13 02:13:06;;;;;;;3.10;1.63;;;21.90;55.40;;;;;;3123248;28;20049;-81
2021/06/13 02:14:38;;;;;;;2.72;1.40;;;21.90;55.30;;;;;;3125126;28;20406;-79
2021/06/13 02:16:10;;;;;;;2.85;1.60;;;21.90;55.30;;;;;;3123812;28;20042;-79
2021/06/13 02:17:42;;;;;;;2.93;1.60;;;21.90;55.40;;;;;;3124281;28;20049;-79
2021/06/13 02:19:16;;;;;;;2.67;1.40;;;21.90;55.40;;;;;;3124706;28;20057;-79
2021/06/13 02:20:46;;;;;;;2.67;1.30;;;21.90;56.00;;;;;;3124606;28;20072;-78
2021/06/13 02:22:18;;;;;;;2.70;1.63;;;21.90;55.40;;;;;;3123696;28;20041;-80
2021/06/13 02:23:49;;;;;;;3.03;1.50;;;21.90;55.30;;;;;;3124687;28;20057;-79
2021/06/13 02:25:20;;;;;;;1.88;1.50;;;21.90;55.30;;;;;;3124782;28;20443;-79
2021/06/13 02:26:52;;;;;;;2.63;1.58;;;21.90;55.30;;;;;;3123556;28;20662;-80
2021/06/13 02:28:23;;;;;;;2.95;1.60;;;21.90;55.30;;;;;;3124736;28;20049;-79
2021/06/13 02:29:53;;;;;;;2.30;1.60;;;21.90;56.00;;;;;;3124742;28;20057;-81
2021/06/13 02:31:29;;;;;;;2.70;1.60;;;21.90;55.40;;;;;;3123778;28;20115;-78
2021/06/13 02:33:00;;;;;;;2.08;1.50;;;21.90;55.30;;;;;;3124313;28;20049;-79
2021/06/13 02:34:31;;;;;;;1.77;1.27;;;21.90;55.30;;;;;;3124941;28;20064;-79
2021/06/13 02:36:02;;;;;;;3.55;1.40;;;21.90;55.30;;;;;;3124768;28;20049;-80
2021/06/13 02:39:17;;;;;;;2.45;1.52;;;21.90;55.30;;;;;;3122184;28;20072;-78
2021/06/13 02:40:49;;;;;;;2.28;1.50;;;21.90;55.20;;;;;;3123950;28;20052;-78
2021/06/13 02:42:20;;;;;;;2.55;1.45;;;21.90;55.20;;;;;;3123474;28;20048;-79
2021/06/13 02:43:52;;;;;;;3.88;1.85;;;21.90;55.30;;;;;;3123726;28;20557;-78
2021/06/13 02:45:23;;;;;;;3.23;1.73;;;21.90;55.30;;;;;;3123133;28;20049;-78
2021/06/13 02:46:55;;;;;;;2.65;1.55;;;21.90;55.30;;;;;;3121000;28;20299;-79
2021/06/13 02:48:27;;;;;;;2.63;1.48;;;21.90;55.30;;;;;;3104621;28;20069;-77
2021/06/13 02:50:00;;;;;;;2.35;1.35;;;21.90;55.30;;;;;;3099099;28;20066;-78
2021/06/13 02:51:32;;;;;;;;;;;21.90;55.30;;;;;;3099694;28;20117;-77
2021/06/13 02:53:08;;;;;;;3.05;1.60;;;21.90;55.30;;;;;;3110288;28;19948;-78
2021/06/13 02:54:39;;;;;;;2.95;1.52;;;21.90;55.30;;;;;;3111613;28;20517;-78
2021/06/13 02:56:14;;;;;;;1.92;1.42;;;21.90;55.30;;;;;;3111486;28;20561;-77
2021/06/13 02:57:49;;;;;;;3.90;1.42;;;21.90;55.20;;;;;;3110428;28;20046;-77
2021/06/13 02:59:26;;;;;;;3.00;1.55;;;21.90;55.20;;;;;;3111453;28;20053;-78
2021/06/13 03:00:57;;;;;;;2.33;1.30;;;21.90;55.30;;;;;;3110356;28;20522;-78
2021/06/13 03:02:30;;;;;;;3.38;1.55;;;21.90;55.30;;;;;;3111169;28;20038;-78
2021/06/13 03:04:01;;;;;;;2.80;1.50;;;21.90;55.20;;;;;;3111131;28;20049;-77
2021/06/13 03:05:32;;;;;;;2.25;1.30;;;21.90;55.30;;;;;;3111652;28;20050;-78
2021/06/13 03:07:04;;;;;;;2.50;1.23;;;21.90;55.20;;;;;;3110864;28;20414;-77
2021/06/13 03:08:34;;;;;;;3.72;1.88;;;21.90;55.20;;;;;;3111326;28;20573;-78
2021/06/13 03:10:08;;;;;;;2.65;1.50;;;21.90;55.30;;;;;;3111057;28;20053;-78
2021/06/13 03:11:39;;;;;;;3.40;1.50;;;21.90;55.20;;;;;;3110881;28;20054;-78
2021/06/13 03:13:10;;;;;;;2.97;1.60;;;21.90;55.20;;;;;;3111376;28;20057;-78
2021/06/13 03:14:41;;;;;;;2.72;1.60;;;21.90;55.20;;;;;;3111297;28;20049;-78
2021/06/13 03:16:12;;;;;;;2.13;1.30;;;21.90;55.20;;;;;;3110483;28;20042;-78
2021/06/13 03:17:44;;;;;;;2.78;1.42;;;21.90;55.20;;;;;;3110365;28;20057;-78
2021/06/13 03:19:15;;;;;;;2.85;1.58;;;21.90;55.30;;;;;;3111367;28;20446;-78
2021/06/13 03:20:46;;;;;;;2.08;1.55;;;21.90;55.30;;;;;;3110569;28;20151;-78
2021/06/13 03:22:17;;;;;;;3.22;1.65;;;21.90;55.20;;;;;;3110582;28;20506;-78
2021/06/13 03:23:48;;;;;;;2.63;1.70;;;21.90;55.20;;;;;;3110801;28;20049;-78
2021/06/13 03:25:19;;;;;;;2.47;1.58;;;21.90;55.20;;;;;;3110738;28;20041;-78
2021/06/13 03:26:50;;;;;;;3.10;1.55;;;21.90;55.20;;;;;;3110287;28;20141;-78
2021/06/13 03:28:21;;;;;;;2.80;1.70;;;21.90;55.10;;;;;;3111137;28;20141;-78
2021/06/13 03:29:53;;;;;;;2.78;1.40;;;21.90;55.20;;;;;;3110653;28;20499;-78
2021/06/13 03:31:24;;;;;;;2.35;1.48;;;21.90;55.10;;;;;;3110364;28;20053;-78
2021/06/13 03:32:57;;;;;;;2.80;1.60;;;21.90;55.20;;;;;;3110372;28;20113;-78
2021/06/13 03:34:28;;;;;;;3.08;1.60;;;21.90;55.20;;;;;;3111063;28;20152;-78
2021/06/13 03:35:59;;;;;;;2.95;1.63;;;21.90;55.10;;;;;;3110723;28;20065;-77
2021/06/13 03:37:31;;;;;;;2.67;1.40;;;21.90;55.20;;;;;;3110314;28;20046;-77
2021/06/13 03:39:03;;;;;;;1.90;1.38;;;21.90;55.10;;;;;;3110691;28;20494;-78
2021/06/13 03:40:34;;;;;;;2.97;1.73;;;21.90;55.20;;;;;;3110779;28;20054;-78
2021/06/13 03:42:06;;;;;;;2.10;1.48;;;21.90;55.20;;;;;;3110433;28;20099;-78
2021/06/13 03:43:38;;;;;;;2.33;1.42;;;21.90;55.10;;;;;;3110602;28;20662;-78
2021/06/13 03:45:11;;;;;;;2.35;1.40;;;21.90;55.10;;;;;;3110173;28;20064;-78
2021/06/13 03:46:43;;;;;;;2.63;1.60;;;21.90;55.20;;;;;;3110407;28;20518;-78
2021/06/13 03:48:16;;;;;;;3.22;1.60;;;21.90;55.10;;;;;;3110780;28;20065;-80
2021/06/13 03:49:47;;;;;;;3.15;1.67;;;21.90;55.10;;;;;;3110189;28;20062;-78
2021/06/13 03:51:19;;;;;;;3.38;1.50;;;21.90;55.10;;;;;;3111225;28;20049;-78
2021/06/13 03:52:51;;;;;;;2.45;1.40;;;21.90;55.10;;;;;;3109938;28;20057;-77
2021/06/13 03:54:22;;;;;;;2.08;1.52;;;21.90;55.10;;;;;;3111117;28;20046;-78
2021/06/13 03:55:53;;;;;;;3.03;1.33;;;21.90;55.20;;;;;;3110615;28;20663;-78
2021/06/13 03:57:25;;;;;;;3.80;1.70;;;21.90;55.10;;;;;;3110254;28;20572;-78
2021/06/13 03:58:57;;;;;;;3.30;1.70;;;21.90;55.10;;;;;;3110697;28;20058;-78
2021/06/13 04:00:30;;;;;;;2.35;1.33;;;21.90;55.10;;;;;;3109576;28;20046;-78
2021/06/13 04:02:02;;;;;;;2.35;1.67;;;21.90;55.20;;;;;;3110200;28;20124;-78
2021/06/13 04:03:35;;;;;;;2.67;1.58;;;21.90;55.10;;;;;;3110545;28;20054;-78
2021/06/13 04:05:06;;;;;;;;;;;21.90;55.10;;;;;;3111110;28;20341;-77
2021/06/13 04:06:39;;;;;;;3.03;1.80;;;21.90;55.10;;;;;;3110374;28;19929;-78
2021/06/13 04:08:11;;;;;;;3.05;1.50;;;21.90;55.20;;;;;;3110141;28;20057;-77
2021/06/13 04:09:42;;;;;;;2.30;1.50;;;21.90;55.10;;;;;;3110638;28;20430;-78
2021/06/13 04:11:14;;;;;;;4.13;1.52;;;21.90;55.10;;;;;;3110562;28;20054;-78
2021/06/13 04:12:47;;;;;;;2.65;1.52;;;21.90;55.00;;;;;;3109751;28;20080;-77
2021/06/13 04:14:18;;;;;;;3.13;1.58;;;21.90;55.10;;;;;;3110453;28;20054;-78
2021/06/13 04:15:50;;;;;;;2.63;1.33;;;21.90;55.10;;;;;;3109791;28;20052;-78
2021/06/13 04:17:20;;;;;;;4.32;1.73;;;21.90;55.10;;;;;;3110356;28;20104;-78
2021/06/13 04:18:53;;;;;;;4.38;1.70;;;21.90;55.10;;;;;;3110701;28;20422;-78
2021/06/13 04:20:25;;;;;;;;;;;21.90;55.10;;;;;;3110976;28;20060;-78
2021/06/13 04:21:56;;;;;;;2.42;1.60;;;21.90;55.10;;;;;;3110106;28;19928;-78
2021/06/13 04:23:28;;;;;;;3.88;1.60;;;21.90;55.10;;;;;;3110912;28;20558;-77
2021/06/13 04:25:00;;;;;;;2.42;1.50;;;21.90;55.10;;;;;;3110318;28;20057;-79
2021/06/13 04:26:32;;;;;;;2.38;1.30;;;21.90;55.00;;;;;;3110572;28;20061;-77
2021/06/13 04:28:04;;;;;;;3.00;1.50;;;21.90;55.10;;;;;;3109904;28;20145;-78
2021/06/13 04:29:35;;;;;;;2.47;1.77;;;21.90;55.10;;;;;;3110373;28;20058;-79
2021/06/13 04:31:10;;;;;;;2.03;1.33;;;21.90;55.00;;;;;;3109724;28;20423;-77
2021/06/13 04:32:42;;;;;;;2.22;1.40;;;21.90;55.00;;;;;;3110159;28;20498;-78
2021/06/13 04:34:15;;;;;;;2.30;1.42;;;21.90;55.10;;;;;;3111084;28;20060;-77
2021/06/13 04:35:46;;;;;;;;;;;21.90;55.10;;;;;;3110833;28;20061;-79
2021/06/13 04:37:18;;;;;;;3.17;1.67;;;21.90;55.10;;;;;;3109946;28;19921;-79
2021/06/13 04:38:48;;;;;;;3.47;1.60;;;21.90;55.00;;;;;;3110255;28;20141;-78
2021/06/13 04:40:20;;;;;;;3.15;1.55;;;21.90;55.10;;;;;;3110508;28;20073;-79
2021/06/13 04:41:52;;;;;;;2.50;1.45;;;21.90;55.10;;;;;;3109760;28;20534;-78
2021/06/13 04:43:23;;;;;;;2.20;1.58;;;21.90;55.10;;;;;;3110423;28;20046;-78
2021/06/13 04:44:54;;;;;;;1.73;1.25;;;21.90;55.10;;;;;;3110669;28;20080;-78
2021/06/13 04:46:28;;;;;;;2.17;1.30;;;21.90;55.20;;;;;;3109594;28;20046;-78
2021/06/13 04:48:00;;;;;;;3.95;1.70;;;21.90;55.10;;;;;;3109835;28;20408;-79
2021/06/13 04:49:33;;;;;;;4.13;1.70;;;21.90;55.10;;;;;;3110476;28;20060;-78
2021/06/13 04:51:06;;;;;;;2.40;1.30;;;21.90;55.10;;;;;;3110445;28;20049;-78
2021/06/13 04:52:38;;;;;;;2.55;1.45;;;21.90;55.10;;;;;;3109891;28;20499;-78
2021/06/13 04:54:18;;;;;;;3.42;1.58;;;21.90;55.10;;;;;;3110875;28;20153;-79
2021/06/13 04:55:54;;;;;;;3.03;1.30;;;21.90;55.00;;;;;;3110533;28;20395;-78
2021/06/13 04:57:42;;;;;;;3.30;1.70;;;21.90;55.10;;;;;;3110365;28;20042;-78
2021/06/13 04:59:12;;;;;;;3.05;1.70;;;21.90;55.00;;;;;;3111401;28;20057;-79
2021/06/13 05:00:44;;;;;;;3.00;1.60;;;21.90;55.00;;;;;;3110126;28;20518;-78
2021/06/13 05:02:16;;;;;;;2.58;1.70;;;21.90;55.10;;;;;;3110193;28;20498;-78
2021/06/13 05:03:47;;;;;;;2.35;1.50;;;21.90;55.00;;;;;;3110251;28;20057;-78
2021/06/13 05:05:20;;;;;;;2.60;1.83;;;21.90;55.10;;;;;;3110684;28;20049;-79
2021/06/13 05:06:51;;;;;;;2.75;1.50;;;21.90;55.00;;;;;;3109835;28;20049;-78
2021/06/13 05:08:23;;;;;;;2.70;1.50;;;21.90;55.10;;;;;;3109920;28;20577;-79
2021/06/13 05:09:54;;;;;;;3.15;1.73;;;21.90;55.00;;;;;;3110372;28;20081;-78
2021/06/13 05:11:26;;;;;;;3.22;1.85;;;21.90;55.10;;;;;;3110287;28;20054;-78
2021/06/13 05:12:57;;;;;;;3.38;1.58;;;21.90;55.00;;;;;;3109450;28;20057;-79
2021/06/13 05:14:28;;;;;;;2.60;1.63;;;21.90;55.00;;;;;;3110466;28;20112;-79
2021/06/13 05:16:00;;;;;;;3.17;1.42;;;21.90;55.00;;;;;;3109331;28;20136;-78
2021/06/13 05:17:31;;;;;;;3.28;1.67;;;21.90;55.00;;;;;;3109606;28;20068;-77
2021/06/13 05:19:03;;;;;;;2.63;1.70;;;21.90;55.00;;;;;;3110017;28;20046;-78
2021/06/13 05:20:36;;;;;;;2.42;1.40;;;21.90;55.00;;;;;;3110038;28;20069;-77
2021/06/13 05:22:08;;;;;;;3.85;1.90;;;21.90;55.00;;;;;;3109942;28;20046;-78
2021/06/13 05:23:38;;;;;;;2.55;1.73;;;21.90;55.10;;;;;;3110247;28;20057;-79
2021/06/13 05:25:11;;;;;;;3.35;1.70;;;21.90;55.00;;;;;;3110406;28;20049;-79
2021/06/13 05:26:43;;;;;;;2.72;1.67;;;21.90;55.10;;;;;;3109873;28;20054;-78
2021/06/13 05:28:13;;;;;;;1.88;1.40;;;21.90;55.10;;;;;;3110145;28;20491;-78
2021/06/13 05:29:45;;;;;;;3.03;1.30;;;21.90;55.00;;;;;;3109874;28;20053;-77
2021/06/13 05:31:17;;;;;;;1.73;1.40;;;21.90;55.00;;;;;;3109668;28;20061;-79
2021/06/13 05:32:48;;;;;;;3.35;1.60;;;21.90;55.00;;;;;;3109591;28;20049;-78
2021/06/13 05:34:20;;;;;;;3.30;1.77;;;21.90;55.00;;;;;;3110357;28;20060;-79
2021/06/13 05:35:53;;;;;;;2.88;1.80;;;21.90;54.90;;;;;;3111211;28;20057;-78
2021/06/13 05:37:25;;;;;;;2.83;1.65;;;21.90;54.90;;;;;;3106734;28;20050;-77
2021/06/13 05:38:57;;;;;;;3.92;1.77;;;21.90;54.90;;;;;;3109390;28;20059;-77
2021/06/13 05:40:28;;;;;;;2.78;1.33;;;21.90;54.90;;;;;;3109464;28;20061;-78
2021/06/13 05:41:59;;;;;;;2.33;1.58;;;22.00;55.00;;;;;;3109096;28;20658;-78
2021/06/13 05:43:31;;;;;;;2.53;1.50;;;21.90;54.90;;;;;;3109520;28;20415;-78
2021/06/13 05:45:02;;;;;;;2.90;1.88;;;21.90;54.90;;;;;;3109744;28;20046;-78
2021/06/13 05:46:33;;;;;;;2.80;1.70;;;21.90;55.00;;;;;;3108821;28;20042;-78
2021/06/13 05:48:06;;;;;;;3.80;1.80;;;21.90;54.90;;;;;;3110062;28;20042;-78
2021/06/13 05:49:37;;;;;;;2.97;1.70;;;21.90;54.80;;;;;;3111727;28;20514;-77
2021/06/13 05:51:10;;;;;;;3.47;1.83;;;22.00;54.90;;;;;;3112003;28;20049;-79
2021/06/13 05:52:42;;;;;;;;;;;21.90;54.80;;;;;;3111743;28;20046;-78
2021/06/13 05:54:13;;;;;;;3.28;1.63;;;21.90;54.90;;;;;;3112141;28;19922;-78
2021/06/13 05:55:44;;;;;;;3.03;1.70;;;21.90;54.80;;;;;;3111588;28;20080;-78
2021/06/13 05:57:16;;;;;;;2.58;1.50;;;21.90;54.90;;;;;;3111754;28;20499;-78
2021/06/13 05:58:47;;;;;;;2.35;1.52;;;21.90;54.90;;;;;;3111834;28;20727;-77
2021/06/13 06:00:20;;;;;;;3.72;1.65;;;21.90;54.90;;;;;;3111111;28;20491;-78
2021/06/13 06:01:51;;;;;;;2.65;1.40;;;21.90;55.00;;;;;;3111411;28;20056;-77
2021/06/13 06:03:23;;;;;;;3.40;1.60;;;21.90;54.80;;;;;;3111996;28;20056;-77
2021/06/13 06:04:54;;;;;;;2.00;1.38;;;21.90;54.90;;;;;;3111862;28;20076;-78
2021/06/13 06:06:27;;;;;;;2.85;1.73;;;21.90;54.90;;;;;;3112042;28;20046;-78
2021/06/13 06:07:58;;;;;;;2.20;1.55;;;21.90;54.80;;;;;;3111152;28;20411;-78
2021/06/13 06:09:30;;;;;;;2.22;1.63;;;21.90;54.80;;;;;;3111764;28;20054;-79
2021/06/13 06:11:01;;;;;;;2.13;1.52;;;22.00;55.00;;;;;;3111495;28;20430;-77
2021/06/13 06:12:32;;;;;;;2.35;1.40;;;21.90;54.90;;;;;;3111227;28;20049;-77
2021/06/13 06:14:04;;;;;;;5.20;2.08;;;21.90;54.90;;;;;;3112140;28;20045;-78
2021/06/13 06:15:36;;;;;;;2.88;1.50;;;21.90;54.90;;;;;;3111210;28;20046;-78
2021/06/13 06:17:08;;;;;;;4.00;1.60;;;21.90;54.90;;;;;;3111223;28;20045;-78
2021/06/13 06:18:39;;;;;;;2.20;1.52;;;21.90;54.90;;;;;;3112222;28;20049;-77
2021/06/13 06:20:11;;;;;;;5.07;1.95;;;21.90;54.90;;;;;;3111685;28;20042;-79
2021/06/13 06:21:44;;;;;;;3.47;1.70;;;21.90;54.80;;;;;;3111531;28;20173;-77
2021/06/13 06:23:16;;;;;;;;;;;22.00;54.90;;;;;;3112167;28;20049;-77
2021/06/13 06:24:47;;;;;;;3.00;1.92;;;22.00;55.00;;;;;;3111625;28;19921;-78
2021/06/13 06:26:18;;;;;;;4.47;1.85;;;22.00;54.90;;;;;;3111621;28;20419;-78
2021/06/13 06:27:49;;;;;;;3.67;1.63;;;21.90;54.90;;;;;;3110765;28;20069;-78
2021/06/13 06:29:21;;;;;;;2.47;1.50;;;21.90;54.80;;;;;;3111776;28;20045;-78
2021/06/13 06:30:53;;;;;;;3.05;1.60;;;21.90;54.90;;;;;;3110597;28;20046;-78
2021/06/13 06:32:23;;;;;;;3.38;1.77;;;21.90;54.80;;;;;;3111097;28;20045;-77
2021/06/13 06:33:55;;;;;;;2.90;1.63;;;21.90;54.90;;;;;;3111771;28;20050;-77
2021/06/13 06:35:27;;;;;;;2.97;1.67;;;22.00;54.80;;;;;;3111689;28;20050;-77
2021/06/13 06:37:00;;;;;;;3.63;1.90;;;22.00;54.80;;;;;;3111008;28;20144;-78
2021/06/13 06:38:32;;;;;;;;;;;21.90;54.80;;;;;;3111812;28;20526;-77
2021/06/13 06:40:04;;;;;;;2.75;1.60;;;21.90;54.80;;;;;;3111235;28;19921;-78
2021/06/13 06:41:37;;;;;;;2.72;1.95;;;21.90;54.90;;;;;;3111627;28;20057;-78
2021/06/13 06:43:08;;;;;;;2.22;1.40;;;21.90;54.70;;;;;;3111135;28;20049;-77
2021/06/13 06:44:39;;;;;;;3.08;1.88;;;21.90;54.80;;;;;;3111273;28;20046;-77
2021/06/13 06:46:11;;;;;;;2.55;1.75;;;21.90;54.80;;;;;;3110979;28;20524;-78
2021/06/13 06:47:41;;;;;;;2.78;1.75;;;21.90;54.80;;;;;;3111057;28;20502;-77
2021/06/13 06:49:13;;;;;;;2.30;1.55;;;22.00;54.90;;;;;;3111600;28;20061;-78
2021/06/13 06:50:45;;;;;;;2.95;1.63;;;21.90;54.70;;;;;;3110924;28;20526;-78
2021/06/13 06:52:17;;;;;;;3.47;2.05;;;21.90;54.70;;;;;;3110809;28;20045;-78
2021/06/13 06:53:48;;;;;;;2.63;1.38;;;22.00;54.80;;;;;;3111532;28;20116;-77
2021/06/13 06:55:20;;;;;;;2.63;1.48;;;21.90;54.70;;;;;;3111672;28;20053;-78
2021/06/13 06:56:51;;;;;;;4.30;2.00;;;21.90;54.70;;;;;;3110721;28;20054;-78
2021/06/13 06:58:22;;;;;;;2.38;1.67;;;21.90;54.80;;;;;;3111362;28;20061;-77
2021/06/13 06:59:54;;;;;;;2.75;1.63;;;21.90;54.70;;;;;;3110038;28;20494;-77
2021/06/13 07:01:26;;;;;;;2.60;1.58;;;22.00;54.80;;;;;;3110562;28;20046;-77
2021/06/13 07:02:58;;;;;;;3.42;1.80;;;21.90;54.70;;;;;;3110453;28;20057;-78
2021/06/13 07:04:30;;;;;;;2.85;1.77;;;21.90;54.70;;;;;;3111713;28;20056;-77
2021/06/13 07:06:01;;;;;;;3.63;1.63;;;21.90;54.80;;;;;;3111150;28;20049;-78
2021/06/13 07:07:34;;;;;;;3.88;1.77;;;21.90;54.80;;;;;;3110812;28;20503;-78
2021/06/13 07:09:06;;;;;;;;;;;21.90;54.80;;;;;;3111389;28;20050;-78
2021/06/13 07:10:38;;;;;;;3.95;1.77;;;21.90;54.80;;;;;;3110901;28;19921;-78
2021/06/13 07:12:10;;;;;;;2.92;1.80;;;21.90;54.70;;;;;;3110871;28;20046;-77
2021/06/13 07:13:42;;;;;;;4.07;1.70;;;21.90;54.70;;;;;;3111208;28;20442;-78
2021/06/13 07:15:14;;;;;;;2.90;1.70;;;21.90;54.70;;;;;;3110910;28;20050;-78
2021/06/13 07:16:45;;;;;;;2.60;1.80;;;21.90;54.70;;;;;;3110919;28;20119;-77
2021/06/13 07:18:17;;;;;;;4.60;1.70;;;22.00;54.80;;;;;;3111601;28;20057;-77
2021/06/13 07:19:48;;;;;;;3.45;1.70;;;21.90;54.70;;;;;;3111576;28;20057;-77
2021/06/13 07:21:19;;;;;;;3.33;1.90;;;21.90;54.60;;;;;;3112056;28;20053;-77
2021/06/13 07:22:52;;;;;;;2.80;1.65;;;22.00;54.70;;;;;;3111237;28;20045;-77
2021/06/13 07:24:23;;;;;;;;;;;21.90;54.70;;;;;;3111465;28;20050;-78
2021/06/13 07:25:54;;;;;;;3.17;2.05;;;22.00;54.60;;;;;;3110962;28;19917;-77
2021/06/13 07:27:27;;;;;;;3.58;1.75;;;22.00;54.60;;;;;;3110287;28;20537;-77
2021/06/13 07:28:59;;;;;;;3.13;1.65;;;21.90;54.50;;;;;;3110989;28;20053;-78
2021/06/13 07:30:30;;;;;;;2.30;1.67;;;22.00;54.60;;;;;;3109834;28;20046;-79
2021/06/13 07:32:02;;;;;;;3.60;1.60;;;22.00;54.70;;;;;;3110275;28;20077;-79
2021/06/13 07:33:34;;;;;;;2.97;1.70;;;21.90;54.60;;;;;;3110991;28;20060;-78
2021/06/13 07:35:06;;;;;;;3.10;2.00;;;21.90;54.60;;;;;;3110937;28;20422;-78
2021/06/13 07:36:37;;;;;;;3.08;1.70;;;21.90;54.50;;;;;;3110791;28;20462;-78
2021/06/13 07:38:10;;;;;;;5.07;1.92;;;21.90;54.60;;;;;;3110099;28;20049;-77
2021/06/13 07:39:42;;;;;;;;;;;22.00;54.60;;;;;;3111091;28;20050;-78
2021/06/13 07:41:14;;;;;;;3.15;1.83;;;21.90;54.70;;;;;;3110805;28;20401;-78
2021/06/13 07:42:45;;;;;;;2.88;1.67;;;22.00;54.70;;;;;;3110104;28;20050;-77
2021/06/13 07:44:16;;;;;;;4.13;2.00;;;22.00;54.70;;;;;;3111036;28;20057;-78
2021/06/13 07:45:48;;;;;;;2.70;1.85;;;21.90;54.60;;;;;;3110106;28;20041;-78
2021/06/13 07:47:20;;;;;;;4.05;2.05;;;22.00;54.60;;;;;;3110325;28;20053;-77
2021/06/13 07:48:52;;;;;;;5.85;2.15;;;21.90;54.50;;;;;;3110824;28;20065;-78
2021/06/13 07:50:23;;;;;;;3.30;1.98;;;21.90;54.50;;;;;;3110777;28;20046;-79
2021/06/13 07:51:55;;;;;;;3.00;1.67;;;22.00;54.70;;;;;;3110349;28;20411;-78
2021/06/13 07:53:31;;;;;;;2.97;1.73;;;21.90;54.60;;;;;;3110659;28;20140;-78
2021/06/13 07:55:04;;;;;;;4.07;1.80;;;22.00;54.60;;;;;;3110901;28;20641;-78
2021/06/13 07:56:35;;;;;;;3.88;1.90;;;21.90;54.60;;;;;;3110447;28;20057;-78
2021/06/13 07:58:07;;;;;;;3.53;1.80;;;21.90;54.60;;;;;;3110036;28;20046;-78
2021/06/13 07:59:39;;;;;;;2.67;1.70;;;21.90;54.60;;;;;;3110318;28;20092;-79
2021/06/13 08:01:14;;;;;;;3.47;1.90;;;22.00;54.70;;;;;;3109788;28;20046;-78
2021/06/13 08:02:45;;;;;;;3.08;1.95;;;22.00;54.60;;;;;;3110224;28;20404;-78
2021/06/13 08:04:17;;;;;;;2.75;1.80;;;21.90;54.60;;;;;;3111037;28;20042;-78